Aérodrome :
LOGIN :

S'inscrire | Disclaimer

   EN    FR    IT 

 










Légende :    VFR   VFR Marginal   IFR   IFR Intensif   IFR Très Intensif
Visi : 
Plafond : 
>= 8 km
>= 3000ft
5 à 8 km
1000 à 3000 ft
1500m à 5 km
500 à 1000 ft
800 à 1500m
200 à 500 ft
< 800m
< 200 ft
Symboles :   Orages  Brouillard  Fortes neiges  Fortes précipitations  Vent > 20 kt
SIGMETs :   Divers  Orages  Givrage  Turbulence  Onde Orograph.  Cendres Volcan.







- Altitude de l'aérodrome : 586 ft


LIMN - Cameri Air Force Base

DERNIER METAR :
  • 141655Z 21003KT 1400 BR BKN005 12/12 Q1026 RMK BKN VIS MIN 1400 AMB

METARs EXPIRÉS :
  • 141555Z VRB02KT 2000 BR BKN005 13/12 Q1026 RMK BKN VIS MIN 2000 YLO
  • 141455Z 22003KT 160V290 2500 BR SCT005 13/11 Q1027 RMK BKN VIS MIN 2500 YLO

TAF TAF LIMN
Valide du 14 à 18h jusqu'au 15 à 03h UTC


141700Z 1418/1503 VRB02KT 2000 BR BKN005
BECMG 1419/1421 1200 BCFG BKN005
PROB40
TEMPO 1423/1503 0600 FG BKN002
Pas de NOTAMs connus pour ce terrain.



MET'MAP, la Météo Aéronautique d'un coup d'oeil ! - Copyright ORBIFLY Décembre 2007 - Disclaimer

ORBIFLY MET'MAP TEAM :

Programmation & Développement : Alexandra Zaïnal
Conception & Développement : Baudouin d'Aumeries
Co-Programmation & Développement : Marc-Olivier Méhu
Soutien technique & logistique : Manuel Goepfert

Contact : metmap@orbifly.com




SOURCES & CREDITS :

   NOAA